createdAt,value
2023-01-04T00:01:38.737Z,71.37
2023-01-04T00:07:09.859Z,71.58
2023-01-04T00:12:41.019Z,71.37
2023-01-04T00:18:12.312Z,71.69
2023-01-04T00:23:44.424Z,71.61
2023-01-04T00:29:15.687Z,71.51
2023-01-04T00:34:47.108Z,71.63
2023-01-04T00:40:18.448Z,71.36
2023-01-04T00:45:49.593Z,71.53
2023-01-04T00:51:20.994Z,71.46
2023-01-04T00:56:52.087Z,71.38
2023-01-04T01:02:23.406Z,71.45
2023-01-04T01:07:54.898Z,71.56
2023-01-04T01:13:26.018Z,71.41
2023-01-04T01:18:57.022Z,71.48
2023-01-04T01:24:28.230Z,71.47
2023-01-04T01:29:59.265Z,71.52
2023-01-04T01:35:30.405Z,71.42
2023-01-04T01:41:01.630Z,71.68
2023-01-04T01:46:36.599Z,71.65
2023-01-04T01:52:08.615Z,71.44
2023-01-04T01:57:39.740Z,71.23
2023-01-04T02:03:15.229Z,71.67
2023-01-04T02:08:46.603Z,71.31
2023-01-04T02:14:30.330Z,71.27
2023-01-04T02:20:13.759Z,71.29
2023-01-04T02:26:03.067Z,71.36
2023-01-04T02:31:34.037Z,71.51
2023-01-04T02:37:14.211Z,71.56
2023-01-04T02:43:22.256Z,71.62
2023-01-04T02:49:11.826Z,71.17
2023-01-04T02:54:43.431Z,71.75
2023-01-04T03:00:23.287Z,71.28
2023-01-04T03:06:16.593Z,71.36
2023-01-04T03:12:10.643Z,71.56
2023-01-04T03:17:46.058Z,71.11
2023-01-04T03:23:36.120Z,71.50
2023-01-04T03:29:34.485Z,70.93
2023-01-04T03:35:24.093Z,70.81
2023-01-04T03:41:18.396Z,71.28
2023-01-04T03:47:08.357Z,71.29
2023-01-04T03:52:39.911Z,70.82
2023-01-04T03:58:11.535Z,71.06
2023-01-04T04:04:01.487Z,71.47
2023-01-04T04:09:32.579Z,71.31
2023-01-04T04:15:03.851Z,71.20
2023-01-04T04:20:35.298Z,71.10
2023-01-04T04:26:06.807Z,71.31
2023-01-04T04:31:38.044Z,71.29
2023-01-04T04:37:09.375Z,71.15
2023-01-04T04:42:40.428Z,71.16
2023-01-04T04:48:11.772Z,71.28
2023-01-04T04:53:43.233Z,71.34
2023-01-04T04:59:14.518Z,70.66
2023-01-04T05:04:45.352Z,71.13
2023-01-04T05:10:16.307Z,70.88
2023-01-04T05:15:49.139Z,70.69
2023-01-04T05:21:20.597Z,71.34
2023-01-04T05:26:51.840Z,71.02
2023-01-04T05:32:22.914Z,70.71
2023-01-04T05:37:54.156Z,70.70
2023-01-04T05:43:25.365Z,71.24
2023-01-04T05:48:56.544Z,71.04
2023-01-04T05:54:27.620Z,71.23
2023-01-04T05:59:58.371Z,71.29
2023-01-04T06:05:29.586Z,70.61
2023-01-04T06:11:00.651Z,70.70
2023-01-04T06:16:32.148Z,70.47
2023-01-04T06:22:03.321Z,70.66
2023-01-04T06:27:34.518Z,70.97
2023-01-04T06:33:05.516Z,70.57
2023-01-04T06:38:36.723Z,70.82
2023-01-04T06:44:07.793Z,70.47
2023-01-04T06:49:38.762Z,70.52
2023-01-04T06:55:10.044Z,70.72
2023-01-04T07:00:41.325Z,70.46
2023-01-04T07:06:12.889Z,70.88
2023-01-04T07:11:44.237Z,70.99
2023-01-04T07:17:15.438Z,71.15
2023-01-04T07:22:46.433Z,70.56
2023-01-04T07:28:37.533Z,71.07
2023-01-04T07:34:08.555Z,70.54
2023-01-04T07:39:39.737Z,70.52
2023-01-04T07:45:10.917Z,70.41
2023-01-04T07:50:42.238Z,70.62
2023-01-04T07:56:18.534Z,71.02
2023-01-04T08:01:51.176Z,71.12
2023-01-04T08:07:22.406Z,70.51
2023-01-04T08:12:53.550Z,70.73
2023-01-04T08:18:24.791Z,70.37
2023-01-04T08:23:55.899Z,70.52
2023-01-04T08:29:31.145Z,70.46
2023-01-04T08:35:05.997Z,70.80
2023-01-04T08:40:59.896Z,70.45
2023-01-04T08:46:27.834Z,70.79
2023-01-04T08:51:58.997Z,70.99
2023-01-04T08:57:30.132Z,70.62
2023-01-04T09:03:01.238Z,70.72
2023-01-04T09:08:35.575Z,70.38
2023-01-04T09:14:09.609Z,70.37
2023-01-04T09:19:41.077Z,71.07
2023-01-04T09:25:12.133Z,71.27
2023-01-04T09:30:43.406Z,71.03
2023-01-04T09:36:15.980Z,71.52
2023-01-04T09:41:49.725Z,71.24
2023-01-04T09:47:53.568Z,71.55
2023-01-04T09:53:25.200Z,71.54
2023-01-04T09:58:56.240Z,71.21
2023-01-04T10:04:38.346Z,71.46
2023-01-04T10:10:13.441Z,71.26
2023-01-04T10:16:00.784Z,71.65
2023-01-04T10:21:35.406Z,71.68
2023-01-04T10:27:09.287Z,71.58
2023-01-04T10:32:44.203Z,71.77
2023-01-04T10:38:18.787Z,71.55
2023-01-04T10:44:12.153Z,71.40
2023-01-04T10:50:09.501Z,71.48
2023-01-04T10:56:23.077Z,71.42
2023-01-04T11:01:35.503Z,71.50
2023-01-04T11:07:08.352Z,71.50
2023-01-04T11:12:39.464Z,72.01
2023-01-04T11:18:11.776Z,71.33
2023-01-04T11:23:43.027Z,71.53
2023-01-04T11:29:28.829Z,71.44
2023-01-04T11:34:59.668Z,71.87
2023-01-04T11:40:30.519Z,71.69
2023-01-04T11:46:07.252Z,71.61
2023-01-04T11:51:39.872Z,71.76
2023-01-04T11:57:18.174Z,72.03
2023-01-04T12:03:04.694Z,72.08
2023-01-04T12:08:36.426Z,71.83
2023-01-04T12:14:14.403Z,72.04
2023-01-04T12:19:45.603Z,71.81
2023-01-04T12:25:22.105Z,71.82
2023-01-04T12:30:52.875Z,71.64
2023-01-04T12:36:39.403Z,71.87
2023-01-04T12:42:11.896Z,72.22
2023-01-04T12:48:01.882Z,71.99
2023-01-04T12:53:51.558Z,71.73
2023-01-04T12:59:31.881Z,71.84
2023-01-04T13:11:34.325Z,72.00
2023-01-04T13:17:14.603Z,72.10
2023-01-04T13:22:54.494Z,72.06
2023-01-04T13:28:25.315Z,72.04
2023-01-04T13:33:56.358Z,72.12
2023-01-04T13:39:28.610Z,71.88
2023-01-04T13:45:20.411Z,72.00
2023-01-04T13:51:05.045Z,72.15
2023-01-04T13:56:36.092Z,72.19
2023-01-04T14:02:15.214Z,72.16
2023-01-04T14:07:46.644Z,71.98
2023-01-04T14:13:17.947Z,72.49
2023-01-04T14:18:49.179Z,72.52
2023-01-04T14:30:24.994Z,72.63
2023-01-04T14:36:02.989Z,72.41
2023-01-04T14:41:35.178Z,72.22
2023-01-04T14:47:07.462Z,72.15
2023-01-04T14:52:38.685Z,72.44
2023-01-04T14:58:09.904Z,72.24
2023-01-04T15:03:41.103Z,72.32
2023-01-04T15:09:12.072Z,72.29
2023-01-04T15:14:43.198Z,72.70
2023-01-04T15:20:14.550Z,72.36
2023-01-04T15:25:45.638Z,72.33
2023-01-04T15:31:19.759Z,72.71
2023-01-04T15:36:55.506Z,72.49
2023-01-04T15:42:45.198Z,72.40
2023-01-04T15:48:16.796Z,72.53
2023-01-04T15:53:50.153Z,72.48
2023-01-04T15:59:21.385Z,72.76
2023-01-04T16:04:52.729Z,72.77
2023-01-04T16:10:24.061Z,72.74
2023-01-04T16:15:55.231Z,72.64
2023-01-04T16:21:27.447Z,72.86
2023-01-04T16:26:58.484Z,72.56
2023-01-04T16:32:29.400Z,72.42
2023-01-04T16:38:00.399Z,72.41
2023-01-04T16:43:31.593Z,72.49
2023-01-04T16:49:12.661Z,72.89
2023-01-04T16:54:43.835Z,72.85
2023-01-04T17:00:17.202Z,72.83
2023-01-04T17:05:48.376Z,72.80
2023-01-04T17:17:14.592Z,72.92
2023-01-04T17:22:45.709Z,72.63
2023-01-04T17:28:21.277Z,73.04
2023-01-04T17:33:56.346Z,73.01
2023-01-04T17:39:31.099Z,73.04
2023-01-04T17:45:02.058Z,73.16
2023-01-04T17:50:33.214Z,73.07
2023-01-04T17:56:05.178Z,72.95
2023-01-04T18:01:36.302Z,73.07
2023-01-04T18:07:07.835Z,73.09
2023-01-04T18:12:38.699Z,73.35
2023-01-04T18:18:09.612Z,73.49
2023-01-04T18:23:44.017Z,73.16
2023-01-04T18:29:18.360Z,73.22
2023-01-04T18:34:49.720Z,73.55
2023-01-04T18:40:20.815Z,73.49
2023-01-04T18:45:52.242Z,73.42
2023-01-04T18:51:23.799Z,73.42
2023-01-04T18:57:00.651Z,73.50
2023-01-04T19:02:32.195Z,73.27
2023-01-04T19:08:04.441Z,73.45
2023-01-04T19:13:35.665Z,73.64
2023-01-04T19:19:06.935Z,73.41
2023-01-04T19:24:38.735Z,73.65
2023-01-04T19:30:09.661Z,73.44
2023-01-04T19:35:42.039Z,73.77
2023-01-04T19:41:19.943Z,73.87
2023-01-04T19:46:51.011Z,73.77
2023-01-04T19:52:22.177Z,73.71
2023-01-04T19:57:53.229Z,73.74
2023-01-04T20:03:26.281Z,74.02
2023-01-04T20:08:57.703Z,73.93
2023-01-04T20:14:28.806Z,74.04
2023-01-04T20:20:00.119Z,73.88
2023-01-04T20:25:31.731Z,74.00
2023-01-04T20:31:03.650Z,73.92
2023-01-04T20:36:34.691Z,73.77
2023-01-04T20:42:24.368Z,73.80
2023-01-04T20:47:55.554Z,73.79
2023-01-04T20:53:26.625Z,73.85
2023-01-04T20:58:57.756Z,73.96
2023-01-04T21:04:28.486Z,74.04
2023-01-04T21:09:59.819Z,74.21
2023-01-04T21:15:31.209Z,74.27
2023-01-04T21:21:08.662Z,74.23
2023-01-04T21:26:39.868Z,74.00
2023-01-04T21:32:11.099Z,74.21
2023-01-04T21:37:42.169Z,74.18
2023-01-04T21:43:17.020Z,74.29
2023-01-04T21:48:48.562Z,74.23
2023-01-04T21:54:19.445Z,74.24
2023-01-04T21:59:50.589Z,74.10
2023-01-04T22:05:21.485Z,74.19
2023-01-04T22:10:53.499Z,74.18
2023-01-04T22:16:25.634Z,74.25
2023-01-04T22:21:56.815Z,74.18
2023-01-04T22:27:28.002Z,74.25
2023-01-04T22:32:58.919Z,74.29
2023-01-04T22:38:30.066Z,74.23
2023-01-04T22:44:03.536Z,74.11
2023-01-04T22:49:34.849Z,74.08
2023-01-04T22:55:05.880Z,74.32
2023-01-04T23:00:37.019Z,74.14
2023-01-04T23:06:09.112Z,74.09
2023-01-04T23:11:41.229Z,74.38
2023-01-04T23:17:12.094Z,74.14
2023-01-04T23:22:43.218Z,74.05
2023-01-04T23:28:14.565Z,74.32
2023-01-04T23:33:45.927Z,74.33
2023-01-04T23:39:17.282Z,74.36
2023-01-04T23:44:48.124Z,74.32
2023-01-04T23:50:18.778Z,74.48
2023-01-04T23:56:02.175Z,74.32
